sensor_id;sensor_type;location;lat;lon;timestamp;pressure;altitude;pressure_sealevel;temperature;humidity
10202;BME280;5143;42.584;23.164;2023-08-20T00:01:30;92842.28;;;16.18;100.00
10202;BME280;5143;42.584;23.164;2023-08-20T00:03:57;92850.44;;;16.29;100.00
10202;BME280;5143;42.584;23.164;2023-08-20T00:06:25;92863.97;;;16.27;100.00
10202;BME280;5143;42.584;23.164;2023-08-20T00:08:53;92858.69;;;16.29;100.00
10202;BME280;5143;42.584;23.164;2023-08-20T00:11:20;92832.28;;;16.15;100.00
10202;BME280;5143;42.584;23.164;2023-08-20T00:13:47;92853.47;;;16.25;100.00
10202;BME280;5143;42.584;23.164;2023-08-20T00:16:14;92853.00;;;16.21;100.00
10202;BME280;5143;42.584;23.164;2023-08-20T00:18:42;92840.00;;;16.16;100.00
10202;BME280;5143;42.584;23.164;2023-08-20T00:21:09;92844.31;;;16.12;100.00
10202;BME280;5143;42.584;23.164;2023-08-20T00:23:37;92813.72;;;15.80;100.00
10202;BME280;5143;42.584;23.164;2023-08-20T00:26:06;92820.91;;;15.88;100.00
10202;BME280;5143;42.584;23.164;2023-08-20T00:28:33;92834.16;;;15.96;100.00
10202;BME280;5143;42.584;23.164;2023-08-20T00:31:02;92827.63;;;15.99;100.00
10202;BME280;5143;42.584;23.164;2023-08-20T00:33:29;92794.81;;;15.65;100.00
10202;BME280;5143;42.584;23.164;2023-08-20T00:35:56;92846.56;;;16.08;100.00
10202;BME280;5143;42.584;23.164;2023-08-20T00:38:22;92828.34;;;15.99;100.00
10202;BME280;5143;42.584;23.164;2023-08-20T00:40:49;92848.38;;;16.00;100.00
10202;BME280;5143;42.584;23.164;2023-08-20T00:43:17;92852.09;;;16.08;100.00
10202;BME280;5143;42.584;23.164;2023-08-20T00:45:44;92851.97;;;16.24;100.00
10202;BME280;5143;42.584;23.164;2023-08-20T00:48:11;92844.91;;;16.29;100.00
10202;BME280;5143;42.584;23.164;2023-08-20T00:50:39;92850.91;;;16.33;100.00
10202;BME280;5143;42.584;23.164;2023-08-20T00:53:07;92844.41;;;16.30;100.00
10202;BME280;5143;42.584;23.164;2023-08-20T00:55:35;92838.69;;;16.28;100.00
10202;BME280;5143;42.584;23.164;2023-08-20T00:58:02;92845.13;;;16.36;100.00
10202;BME280;5143;42.584;23.164;2023-08-20T01:00:31;92843.59;;;16.41;100.00
10202;BME280;5143;42.584;23.164;2023-08-20T01:02:58;92842.56;;;16.44;100.00
10202;BME280;5143;42.584;23.164;2023-08-20T01:05:25;92801.19;;;16.20;100.00
10202;BME280;5143;42.584;23.164;2023-08-20T01:08:06;92792.22;;;16.14;100.00
10202;BME280;5143;42.584;23.164;2023-08-20T01:10:45;92837.06;;;16.44;100.00
10202;BME280;5143;42.584;23.164;2023-08-20T01:13:17;92795.09;;;16.27;100.00
10202;BME280;5143;42.584;23.164;2023-08-20T01:15:46;92836.81;;;16.42;100.00
10202;BME280;5143;42.584;23.164;2023-08-20T01:18:12;92833.78;;;16.45;100.00
10202;BME280;5143;42.584;23.164;2023-08-20T01:20:41;92825.97;;;16.55;100.00
10202;BME280;5143;42.584;23.164;2023-08-20T01:26:25;92813.44;;;16.54;100.00
10202;BME280;5143;42.584;23.164;2023-08-20T01:28:54;92789.28;;;16.36;100.00
10202;BME280;5143;42.584;23.164;2023-08-20T01:31:22;92830.06;;;16.73;100.00
10202;BME280;5143;42.584;23.164;2023-08-20T01:33:50;92799.59;;;16.60;100.00
10202;BME280;5143;42.584;23.164;2023-08-20T01:36:18;92813.47;;;16.78;100.00
10202;BME280;5143;42.584;23.164;2023-08-20T01:38:45;92818.69;;;16.82;100.00
10202;BME280;5143;42.584;23.164;2023-08-20T01:41:11;92763.19;;;16.42;100.00
10202;BME280;5143;42.584;23.164;2023-08-20T01:43:38;92819.78;;;16.73;100.00
10202;BME280;5143;42.584;23.164;2023-08-20T01:46:07;92817.50;;;16.77;100.00
10202;BME280;5143;42.584;23.164;2023-08-20T01:48:35;92786.34;;;16.58;100.00
10202;BME280;5143;42.584;23.164;2023-08-20T01:51:02;92816.69;;;16.82;100.00
10202;BME280;5143;42.584;23.164;2023-08-20T01:53:29;92808.03;;;16.73;100.00
10202;BME280;5143;42.584;23.164;2023-08-20T01:55:56;92768.97;;;16.39;100.00
10202;BME280;5143;42.584;23.164;2023-08-20T01:58:22;92812.94;;;16.80;100.00
10202;BME280;5143;42.584;23.164;2023-08-20T02:00:51;92802.31;;;16.65;100.00
10202;BME280;5143;42.584;23.164;2023-08-20T02:03:19;92805.50;;;16.75;100.00
10202;BME280;5143;42.584;23.164;2023-08-20T02:05:46;92798.19;;;16.77;100.00
10202;BME280;5143;42.584;23.164;2023-08-20T02:08:13;92792.22;;;16.73;100.00
10202;BME280;5143;42.584;23.164;2023-08-20T02:10:39;92796.78;;;16.65;100.00
10202;BME280;5143;42.584;23.164;2023-08-20T02:13:07;92796.78;;;16.65;100.00
10202;BME280;5143;42.584;23.164;2023-08-20T02:15:34;92785.06;;;16.59;100.00
10202;BME280;5143;42.584;23.164;2023-08-20T02:18:01;92732.06;;;16.23;100.00
10202;BME280;5143;42.584;23.164;2023-08-20T02:20:32;92790.09;;;16.61;100.00
10202;BME280;5143;42.584;23.164;2023-08-20T02:22:59;92800.59;;;16.62;100.00
10202;BME280;5143;42.584;23.164;2023-08-20T02:25:26;92780.09;;;16.52;100.00
10202;BME280;5143;42.584;23.164;2023-08-20T02:27:52;92792.56;;;16.64;100.00
10202;BME280;5143;42.584;23.164;2023-08-20T02:30:19;92769.00;;;16.63;100.00
10202;BME280;5143;42.584;23.164;2023-08-20T02:32:47;92707.66;;;16.33;100.00
10202;BME280;5143;42.584;23.164;2023-08-20T02:35:14;92734.69;;;16.64;100.00
10202;BME280;5143;42.584;23.164;2023-08-20T02:37:43;92785.66;;;17.00;100.00
10202;BME280;5143;42.584;23.164;2023-08-20T02:40:11;92761.25;;;16.86;100.00
10202;BME280;5143;42.584;23.164;2023-08-20T02:42:39;92732.44;;;16.63;100.00
10202;BME280;5143;42.584;23.164;2023-08-20T02:45:07;92774.06;;;16.83;100.00
10202;BME280;5143;42.584;23.164;2023-08-20T02:47:35;92768.38;;;16.76;100.00
10202;BME280;5143;42.584;23.164;2023-08-20T02:50:02;92745.06;;;16.77;100.00
10202;BME280;5143;42.584;23.164;2023-08-20T02:52:29;92728.63;;;16.66;100.00
10202;BME280;5143;42.584;23.164;2023-08-20T02:54:57;92742.25;;;16.58;100.00
10202;BME280;5143;42.584;23.164;2023-08-20T02:57:24;92776.41;;;16.74;100.00
10202;BME280;5143;42.584;23.164;2023-08-20T02:59:51;92789.47;;;16.97;100.00
10202;BME280;5143;42.584;23.164;2023-08-20T03:02:18;92797.97;;;16.99;100.00
10202;BME280;5143;42.584;23.164;2023-08-20T03:04:44;92795.59;;;16.85;100.00
10202;BME280;5143;42.584;23.164;2023-08-20T03:07:11;92810.47;;;17.00;100.00
10202;BME280;5143;42.584;23.164;2023-08-20T03:09:38;92822.19;;;17.06;100.00
10202;BME280;5143;42.584;23.164;2023-08-20T03:12:07;92817.31;;;16.94;100.00
10202;BME280;5143;42.584;23.164;2023-08-20T03:14:34;92819.34;;;16.93;100.00
10202;BME280;5143;42.584;23.164;2023-08-20T03:17:01;92823.00;;;17.01;100.00
10202;BME280;5143;42.584;23.164;2023-08-20T03:19:32;92802.78;;;16.93;100.00
10202;BME280;5143;42.584;23.164;2023-08-20T03:21:59;92812.78;;;16.96;100.00
10202;BME280;5143;42.584;23.164;2023-08-20T03:24:26;92756.03;;;16.58;100.00
10202;BME280;5143;42.584;23.164;2023-08-20T03:26:53;92817.22;;;17.05;100.00
10202;BME280;5143;42.584;23.164;2023-08-20T03:29:21;92775.91;;;16.75;100.00
10202;BME280;5143;42.584;23.164;2023-08-20T03:31:48;92804.22;;;17.00;100.00
10202;BME280;5143;42.584;23.164;2023-08-20T03:34:15;92815.53;;;16.96;100.00
10202;BME280;5143;42.584;23.164;2023-08-20T03:36:42;92811.88;;;16.88;100.00
10202;BME280;5143;42.584;23.164;2023-08-20T03:39:09;92741.78;;;16.54;100.00
10202;BME280;5143;42.584;23.164;2023-08-20T03:41:35;92801.47;;;17.00;100.00
10202;BME280;5143;42.584;23.164;2023-08-20T03:44:03;92760.16;;;16.70;100.00
10202;BME280;5143;42.584;23.164;2023-08-20T03:46:31;92770.84;;;16.55;100.00
10202;BME280;5143;42.584;23.164;2023-08-20T03:48:59;92798.63;;;16.81;100.00
10202;BME280;5143;42.584;23.164;2023-08-20T03:51:25;92806.41;;;16.83;100.00
10202;BME280;5143;42.584;23.164;2023-08-20T03:53:52;92713.03;;;16.20;100.00
10202;BME280;5143;42.584;23.164;2023-08-20T03:56:19;92803.44;;;16.81;100.00
10202;BME280;5143;42.584;23.164;2023-08-20T03:58:46;92806.13;;;16.86;100.00
10202;BME280;5143;42.584;23.164;2023-08-20T04:01:12;92731.66;;;16.38;100.00
10202;BME280;5143;42.584;23.164;2023-08-20T04:03:41;92804.72;;;16.98;100.00
10202;BME280;5143;42.584;23.164;2023-08-20T04:06:07;92803.63;;;17.07;100.00
10202;BME280;5143;42.584;23.164;2023-08-20T04:08:34;92818.28;;;17.21;100.00
10202;BME280;5143;42.584;23.164;2023-08-20T04:11:01;92815.69;;;17.28;100.00
10202;BME280;5143;42.584;23.164;2023-08-20T04:13:29;92818.16;;;17.32;100.00
10202;BME280;5143;42.584;23.164;2023-08-20T04:15:55;92773.22;;;17.13;100.00
10202;BME280;5143;42.584;23.164;2023-08-20T04:18:22;92821.59;;;17.38;100.00
10202;BME280;5143;42.584;23.164;2023-08-20T04:20:53;92812.41;;;17.30;100.00
10202;BME280;5143;42.584;23.164;2023-08-20T04:23:23;92821.69;;;17.51;100.00
10202;BME280;5143;42.584;23.164;2023-08-20T04:25:50;92831.72;;;17.54;100.00
10202;BME280;5143;42.584;23.164;2023-08-20T04:28:18;92820.81;;;17.61;100.00
10202;BME280;5143;42.584;23.164;2023-08-20T04:30:45;92782.75;;;17.36;100.00
10202;BME280;5143;42.584;23.164;2023-08-20T04:33:11;92833.00;;;17.90;100.00
10202;BME280;5143;42.584;23.164;2023-08-20T04:35:38;92773.69;;;17.59;100.00
10202;BME280;5143;42.584;23.164;2023-08-20T04:38:07;92783.59;;;17.68;100.00
10202;BME280;5143;42.584;23.164;2023-08-20T04:40:34;92835.53;;;18.07;100.00
10202;BME280;5143;42.584;23.164;2023-08-20T04:43:00;92820.97;;;18.06;100.00
10202;BME280;5143;42.584;23.164;2023-08-20T04:45:27;92802.22;;;18.18;100.00
10202;BME280;5143;42.584;23.164;2023-08-20T04:47:54;92774.78;;;18.20;100.00
10202;BME280;5143;42.584;23.164;2023-08-20T04:50:21;92783.78;;;18.39;100.00
10202;BME280;5143;42.584;23.164;2023-08-20T04:52:48;92834.03;;;19.01;100.00
10202;BME280;5143;42.584;23.164;2023-08-20T04:55:16;92840.56;;;19.43;100.00
10202;BME280;5143;42.584;23.164;2023-08-20T04:57:43;92770.22;;;19.85;100.00
10202;BME280;5143;42.584;23.164;2023-08-20T05:00:10;92801.66;;;21.33;100.00
10202;BME280;5143;42.584;23.164;2023-08-20T05:02:37;92838.16;;;22.59;100.00
10202;BME280;5143;42.584;23.164;2023-08-20T05:05:05;92849.81;;;23.94;100.00
10202;BME280;5143;42.584;23.164;2023-08-20T05:07:32;92819.94;;;24.67;100.00
10202;BME280;5143;42.584;23.164;2023-08-20T05:09:59;92845.03;;;26.24;90.39
10202;BME280;5143;42.584;23.164;2023-08-20T05:12:27;92864.06;;;28.15;77.36
10202;BME280;5143;42.584;23.164;2023-08-20T05:14:54;92850.91;;;29.15;64.81
10202;BME280;5143;42.584;23.164;2023-08-20T05:17:21;92846.44;;;29.62;66.92
10202;BME280;5143;42.584;23.164;2023-08-20T05:19:48;92854.16;;;30.35;63.18
10202;BME280;5143;42.584;23.164;2023-08-20T05:22:15;92890.25;;;31.14;58.13
10202;BME280;5143;42.584;23.164;2023-08-20T05:24:42;92891.47;;;31.67;56.26
10202;BME280;5143;42.584;23.164;2023-08-20T05:27:12;92867.84;;;32.32;52.59
10202;BME280;5143;42.584;23.164;2023-08-20T05:29:41;92890.28;;;32.90;49.59
10202;BME280;5143;42.584;23.164;2023-08-20T05:32:09;92893.72;;;32.40;48.35
10202;BME280;5143;42.584;23.164;2023-08-20T05:34:36;92830.88;;;32.53;47.57
10202;BME280;5143;42.584;23.164;2023-08-20T05:37:03;92893.25;;;33.17;47.70
10202;BME280;5143;42.584;23.164;2023-08-20T05:39:30;92891.31;;;33.72;47.15
10202;BME280;5143;42.584;23.164;2023-08-20T05:41:57;92886.63;;;33.12;46.79
10202;BME280;5143;42.584;23.164;2023-08-20T05:44:24;92866.63;;;33.61;44.81
10202;BME280;5143;42.584;23.164;2023-08-20T05:46:52;92872.03;;;33.43;42.90
10202;BME280;5143;42.584;23.164;2023-08-20T05:49:19;92890.09;;;31.79;46.86
10202;BME280;5143;42.584;23.164;2023-08-20T05:51:46;92894.97;;;32.85;45.71
10202;BME280;5143;42.584;23.164;2023-08-20T05:54:12;92837.97;;;32.77;43.78
10202;BME280;5143;42.584;23.164;2023-08-20T05:56:39;92875.19;;;32.37;44.64
10202;BME280;5143;42.584;23.164;2023-08-20T05:59:06;92885.31;;;32.17;44.66
10202;BME280;5143;42.584;23.164;2023-08-20T06:01:33;92881.69;;;30.79;47.54
10202;BME280;5143;42.584;23.164;2023-08-20T06:04:01;92851.13;;;30.00;50.10
10202;BME280;5143;42.584;23.164;2023-08-20T06:06:28;92899.31;;;31.01;50.33
10202;BME280;5143;42.584;23.164;2023-08-20T06:08:55;92902.03;;;32.13;47.32
10202;BME280;5143;42.584;23.164;2023-08-20T06:11:22;92902.91;;;33.25;45.31
10202;BME280;5143;42.584;23.164;2023-08-20T06:13:49;92901.19;;;33.46;43.66
10202;BME280;5143;42.584;23.164;2023-08-20T06:16:16;92895.31;;;33.42;43.22
10202;BME280;5143;42.584;23.164;2023-08-20T06:18:42;92887.84;;;34.55;41.39
10202;BME280;5143;42.584;23.164;2023-08-20T06:21:11;92911.28;;;34.69;42.26
10202;BME280;5143;42.584;23.164;2023-08-20T06:23:38;92882.75;;;35.39;40.55
10202;BME280;5143;42.584;23.164;2023-08-20T06:26:05;92918.72;;;36.58;38.51
10202;BME280;5143;42.584;23.164;2023-08-20T06:28:32;92918.47;;;37.54;37.05
10202;BME280;5143;42.584;23.164;2023-08-20T06:30:59;92928.47;;;38.10;34.91
10202;BME280;5143;42.584;23.164;2023-08-20T06:33:26;92887.69;;;37.50;35.24
10202;BME280;5143;42.584;23.164;2023-08-20T06:35:53;92921.28;;;37.71;34.06
10202;BME280;5143;42.584;23.164;2023-08-20T06:38:21;92920.66;;;38.30;33.80
10202;BME280;5143;42.584;23.164;2023-08-20T06:40:47;92928.03;;;39.18;32.71
10202;BME280;5143;42.584;23.164;2023-08-20T06:43:14;92862.00;;;38.25;32.74
10202;BME280;5143;42.584;23.164;2023-08-20T06:45:41;92911.25;;;38.45;32.74
10202;BME280;5143;42.584;23.164;2023-08-20T06:48:08;92921.66;;;38.98;32.08
10202;BME280;5143;42.584;23.164;2023-08-20T06:50:34;92881.97;;;38.64;30.94
10202;BME280;5143;42.584;23.164;2023-08-20T06:53:01;92917.97;;;38.34;31.46
10202;BME280;5143;42.584;23.164;2023-08-20T06:55:29;92920.06;;;38.14;31.96
10202;BME280;5143;42.584;23.164;2023-08-20T06:57:56;92907.78;;;37.01;33.42
10202;BME280;5143;42.584;23.164;2023-08-20T07:00:23;92903.38;;;37.69;32.03
10202;BME280;5143;42.584;23.164;2023-08-20T07:02:49;92897.47;;;37.45;32.25
10202;BME280;5143;42.584;23.164;2023-08-20T07:05:16;92889.81;;;37.32;31.52
10202;BME280;5143;42.584;23.164;2023-08-20T07:07:44;92904.03;;;36.63;33.34
10202;BME280;5143;42.584;23.164;2023-08-20T07:10:12;92906.56;;;36.24;33.04
10202;BME280;5143;42.584;23.164;2023-08-20T07:12:42;92839.50;;;36.35;32.96
10202;BME280;5143;42.584;23.164;2023-08-20T07:15:09;92899.06;;;36.15;32.93
10202;BME280;5143;42.584;23.164;2023-08-20T07:17:36;92904.94;;;37.37;31.63
10202;BME280;5143;42.584;23.164;2023-08-20T07:20:05;92904.19;;;37.01;31.72
10202;BME280;5143;42.584;23.164;2023-08-20T07:22:32;92889.34;;;37.93;33.15
10202;BME280;5143;42.584;23.164;2023-08-20T07:24:59;92901.38;;;38.48;31.23
10202;BME280;5143;42.584;23.164;2023-08-20T07:27:26;92909.09;;;38.26;29.80
10202;BME280;5143;42.584;23.164;2023-08-20T07:29:54;92907.03;;;37.01;32.07
10202;BME280;5143;42.584;23.164;2023-08-20T07:32:21;92883.88;;;38.38;30.22
10202;BME280;5143;42.584;23.164;2023-08-20T07:34:48;92897.91;;;37.75;31.66
10202;BME280;5143;42.584;23.164;2023-08-20T07:37:15;92885.72;;;38.71;30.64
10202;BME280;5143;42.584;23.164;2023-08-20T07:39:42;92910.41;;;38.82;30.76
10202;BME280;5143;42.584;23.164;2023-08-20T07:42:09;92892.88;;;38.50;30.54
10202;BME280;5143;42.584;23.164;2023-08-20T07:44:37;92906.50;;;39.15;29.92
10202;BME280;5143;42.584;23.164;2023-08-20T07:47:05;92903.47;;;39.09;29.08
10202;BME280;5143;42.584;23.164;2023-08-20T07:49:33;92878.97;;;38.01;30.39
10202;BME280;5143;42.584;23.164;2023-08-20T07:51:59;92909.88;;;38.87;29.18
10202;BME280;5143;42.584;23.164;2023-08-20T07:54:26;92910.13;;;39.37;29.03
10202;BME280;5143;42.584;23.164;2023-08-20T07:56:54;92907.41;;;36.93;30.02
10202;BME280;5143;42.584;23.164;2023-08-20T07:59:21;92888.66;;;35.14;32.71
10202;BME280;5143;42.584;23.164;2023-08-20T08:01:47;92887.69;;;34.94;33.59
10202;BME280;5143;42.584;23.164;2023-08-20T08:04:16;92902.91;;;34.30;34.15
10202;BME280;5143;42.584;23.164;2023-08-20T08:06:43;92889.41;;;33.38;35.36
10202;BME280;5143;42.584;23.164;2023-08-20T08:09:20;92885.41;;;33.68;35.08
10202;BME280;5143;42.584;23.164;2023-08-20T08:11:48;92839.53;;;32.55;36.81
10202;BME280;5143;42.584;23.164;2023-08-20T08:14:14;92844.22;;;31.67;37.48
10202;BME280;5143;42.584;23.164;2023-08-20T08:16:41;92877.84;;;31.86;37.65
10202;BME280;5143;42.584;23.164;2023-08-20T08:19:08;92879.94;;;31.07;39.07
10202;BME280;5143;42.584;23.164;2023-08-20T08:21:37;92878.03;;;30.13;40.48
10202;BME280;5143;42.584;23.164;2023-08-20T08:24:04;92881.44;;;30.11;41.62
10202;BME280;5143;42.584;23.164;2023-08-20T08:26:34;92876.44;;;29.79;41.34
10202;BME280;5143;42.584;23.164;2023-08-20T08:29:01;92849.31;;;29.22;41.91
10202;BME280;5143;42.584;23.164;2023-08-20T08:31:28;92868.63;;;29.99;41.87
10202;BME280;5143;42.584;23.164;2023-08-20T08:33:55;92869.31;;;30.09;40.86
10202;BME280;5143;42.584;23.164;2023-08-20T08:36:22;92874.34;;;30.31;40.62
10202;BME280;5143;42.584;23.164;2023-08-20T08:38:51;92878.06;;;30.03;41.28
10202;BME280;5143;42.584;23.164;2023-08-20T08:41:21;92871.56;;;30.01;40.98
10202;BME280;5143;42.584;23.164;2023-08-20T08:43:49;92854.75;;;29.91;41.59
10202;BME280;5143;42.584;23.164;2023-08-20T08:46:16;92864.63;;;30.02;41.80
10202;BME280;5143;42.584;23.164;2023-08-20T08:48:44;92866.56;;;29.99;40.71
10202;BME280;5143;42.584;23.164;2023-08-20T08:51:13;92867.09;;;30.07;41.34
10202;BME280;5143;42.584;23.164;2023-08-20T08:53:42;92853.28;;;29.90;39.80
10202;BME280;5143;42.584;23.164;2023-08-20T08:56:10;92869.03;;;30.05;40.51
10202;BME280;5143;42.584;23.164;2023-08-20T08:58:37;92862.59;;;29.93;39.38
10202;BME280;5143;42.584;23.164;2023-08-20T09:01:04;92864.31;;;29.67;40.25
10202;BME280;5143;42.584;23.164;2023-08-20T09:03:31;92862.47;;;29.91;40.35
10202;BME280;5143;42.584;23.164;2023-08-20T09:05:59;92877.88;;;29.90;39.19
10202;BME280;5143;42.584;23.164;2023-08-20T09:08:27;92862.88;;;29.66;39.07
10202;BME280;5143;42.584;23.164;2023-08-20T09:10:55;92865.16;;;29.79;39.76
10202;BME280;5143;42.584;23.164;2023-08-20T09:13:24;92866.69;;;30.01;39.67
10202;BME280;5143;42.584;23.164;2023-08-20T09:15:52;92867.97;;;29.89;38.79
10202;BME280;5143;42.584;23.164;2023-08-20T09:18:20;92862.72;;;29.95;39.01
10202;BME280;5143;42.584;23.164;2023-08-20T09:20:47;92845.91;;;29.85;38.96
10202;BME280;5143;42.584;23.164;2023-08-20T09:23:15;92830.22;;;29.82;38.24
10202;BME280;5143;42.584;23.164;2023-08-20T09:25:43;92855.31;;;29.99;38.27
10202;BME280;5143;42.584;23.164;2023-08-20T09:28:10;92871.97;;;29.86;38.36
10202;BME280;5143;42.584;23.164;2023-08-20T09:30:38;92855.63;;;30.15;38.57
10202;BME280;5143;42.584;23.164;2023-08-20T09:33:09;92858.84;;;30.21;37.81
10202;BME280;5143;42.584;23.164;2023-08-20T09:35:36;92867.47;;;29.92;38.56
10202;BME280;5143;42.584;23.164;2023-08-20T09:38:04;92854.94;;;29.83;37.49
10202;BME280;5143;42.584;23.164;2023-08-20T09:40:31;92863.59;;;29.97;37.19
10202;BME280;5143;42.584;23.164;2023-08-20T09:42:58;92834.66;;;29.54;37.01
10202;BME280;5143;42.584;23.164;2023-08-20T09:45:28;92852.75;;;29.72;36.88
10202;BME280;5143;42.584;23.164;2023-08-20T09:47:58;92852.72;;;29.82;35.65
10202;BME280;5143;42.584;23.164;2023-08-20T09:50:26;92846.84;;;29.47;37.62
10202;BME280;5143;42.584;23.164;2023-08-20T09:52:58;92846.97;;;29.49;36.83
10202;BME280;5143;42.584;23.164;2023-08-20T09:55:30;92841.88;;;29.57;37.07
10202;BME280;5143;42.584;23.164;2023-08-20T09:58:01;92824.75;;;29.74;36.63
10202;BME280;5143;42.584;23.164;2023-08-20T10:00:28;92852.88;;;30.26;36.14
10202;BME280;5143;42.584;23.164;2023-08-20T10:02:57;92832.16;;;29.79;37.25
10202;BME280;5143;42.584;23.164;2023-08-20T10:05:25;92818.31;;;28.82;37.49
10202;BME280;5143;42.584;23.164;2023-08-20T10:07:52;92841.38;;;29.40;37.57
10202;BME280;5143;42.584;23.164;2023-08-20T10:10:19;92845.25;;;29.65;36.17
10202;BME280;5143;42.584;23.164;2023-08-20T10:12:46;92846.69;;;29.97;35.20
10202;BME280;5143;42.584;23.164;2023-08-20T10:15:14;92847.38;;;30.28;36.29
10202;BME280;5143;42.584;23.164;2023-08-20T10:17:42;92841.28;;;30.32;36.41
10202;BME280;5143;42.584;23.164;2023-08-20T10:20:13;92839.19;;;30.32;36.18
10202;BME280;5143;42.584;23.164;2023-08-20T10:22:42;92848.25;;;30.10;35.46
10202;BME280;5143;42.584;23.164;2023-08-20T10:25:10;92845.38;;;29.98;36.39
10202;BME280;5143;42.584;23.164;2023-08-20T10:27:39;92840.75;;;30.24;36.25
10202;BME280;5143;42.584;23.164;2023-08-20T10:30:10;92836.03;;;30.59;36.09
10202;BME280;5143;42.584;23.164;2023-08-20T10:32:48;92869.28;;;30.30;35.96
10202;BME280;5143;42.584;23.164;2023-08-20T10:35:18;92851.00;;;30.19;35.06
10202;BME280;5143;42.584;23.164;2023-08-20T10:38:04;92832.50;;;29.64;34.99
10202;BME280;5143;42.584;23.164;2023-08-20T10:40:48;92843.84;;;29.76;35.57
10202;BME280;5143;42.584;23.164;2023-08-20T10:43:27;92854.94;;;29.83;35.07
10202;BME280;5143;42.584;23.164;2023-08-20T10:46:05;92833.88;;;29.63;34.52
10202;BME280;5143;42.584;23.164;2023-08-20T10:48:32;92851.63;;;29.66;35.80
10202;BME280;5143;42.584;23.164;2023-08-20T10:51:10;92841.91;;;29.78;35.81
10202;BME280;5143;42.584;23.164;2023-08-20T10:53:37;92847.94;;;29.94;35.95
10202;BME280;5143;42.584;23.164;2023-08-20T10:56:14;92835.66;;;29.90;35.75
10202;BME280;5143;42.584;23.164;2023-08-20T10:58:43;92835.25;;;30.05;35.70
10202;BME280;5143;42.584;23.164;2023-08-20T11:01:18;92868.09;;;29.91;35.10
10202;BME280;5143;42.584;23.164;2023-08-20T11:03:46;92859.53;;;29.79;35.95
10202;BME280;5143;42.584;23.164;2023-08-20T11:06:15;92847.84;;;30.04;35.58
10202;BME280;5143;42.584;23.164;2023-08-20T11:08:42;92842.88;;;30.14;35.64
10202;BME280;5143;42.584;23.164;2023-08-20T11:11:10;92830.22;;;30.03;36.78
10202;BME280;5143;42.584;23.164;2023-08-20T11:13:38;92826.19;;;30.06;35.59
10202;BME280;5143;42.584;23.164;2023-08-20T11:16:06;92823.03;;;30.12;37.09
10202;BME280;5143;42.584;23.164;2023-08-20T11:18:34;92829.06;;;30.18;36.19
10202;BME280;5143;42.584;23.164;2023-08-20T11:21:01;92827.19;;;30.11;36.59
10202;BME280;5143;42.584;23.164;2023-08-20T11:23:29;92834.03;;;29.87;36.64
10202;BME280;5143;42.584;23.164;2023-08-20T11:25:57;92828.13;;;30.04;38.33
10202;BME280;5143;42.584;23.164;2023-08-20T11:28:28;92820.44;;;30.04;37.89
10202;BME280;5143;42.584;23.164;2023-08-20T11:30:55;92825.06;;;30.21;36.80
10202;BME280;5143;42.584;23.164;2023-08-20T11:33:22;92830.16;;;30.13;36.63
10202;BME280;5143;42.584;23.164;2023-08-20T11:35:51;92828.00;;;30.23;37.30
10202;BME280;5143;42.584;23.164;2023-08-20T11:38:21;92837.78;;;30.22;37.70
10202;BME280;5143;42.584;23.164;2023-08-20T11:40:49;92840.34;;;30.39;38.55
10202;BME280;5143;42.584;23.164;2023-08-20T11:43:17;92841.81;;;30.19;37.63
10202;BME280;5143;42.584;23.164;2023-08-20T11:45:47;92835.59;;;29.99;38.31
10202;BME280;5143;42.584;23.164;2023-08-20T11:48:15;92840.16;;;30.04;38.58
10202;BME280;5143;42.584;23.164;2023-08-20T11:50:42;92845.38;;;29.98;37.71
10202;BME280;5143;42.584;23.164;2023-08-20T11:53:10;92835.72;;;30.01;38.00
10202;BME280;5143;42.584;23.164;2023-08-20T11:55:38;92830.16;;;30.13;38.20
10202;BME280;5143;42.584;23.164;2023-08-20T11:58:09;92829.88;;;30.51;37.39
10202;BME280;5143;42.584;23.164;2023-08-20T12:00:36;92843.16;;;30.39;37.32
10202;BME280;5143;42.584;23.164;2023-08-20T12:03:03;92834.22;;;30.00;38.38
10202;BME280;5143;42.584;23.164;2023-08-20T12:05:31;92830.28;;;30.15;37.75
10202;BME280;5143;42.584;23.164;2023-08-20T12:07:59;92817.16;;;30.08;38.77
10202;BME280;5143;42.584;23.164;2023-08-20T12:10:27;92827.59;;;30.17;37.41
10202;BME280;5143;42.584;23.164;2023-08-20T12:12:55;92822.63;;;30.27;38.75
10202;BME280;5143;42.584;23.164;2023-08-20T12:15:24;92822.34;;;30.44;38.14
10202;BME280;5143;42.584;23.164;2023-08-20T12:17:58;92819.16;;;30.71;38.57
10202;BME280;5143;42.584;23.164;2023-08-20T12:20:28;92823.16;;;30.35;38.69
10202;BME280;5143;42.584;23.164;2023-08-20T12:22:58;92813.19;;;30.01;38.71
10202;BME280;5143;42.584;23.164;2023-08-20T12:25:25;92802.81;;;30.04;39.19
10202;BME280;5143;42.584;23.164;2023-08-20T12:27:53;92800.63;;;30.35;38.67
10202;BME280;5143;42.584;23.164;2023-08-20T12:30:20;92808.94;;;30.33;38.11
10202;BME280;5143;42.584;23.164;2023-08-20T12:32:48;92806.81;;;30.43;38.77
10202;BME280;5143;42.584;23.164;2023-08-20T12:35:15;92808.69;;;30.62;38.33
10202;BME280;5143;42.584;23.164;2023-08-20T12:37:40;92803.19;;;30.64;37.63
10202;BME280;5143;42.584;23.164;2023-08-20T12:40:08;92814.06;;;30.46;38.25
10202;BME280;5143;42.584;23.164;2023-08-20T12:42:37;92809.63;;;30.43;38.56
10202;BME280;5143;42.584;23.164;2023-08-20T12:45:05;92812.34;;;30.53;38.17
10202;BME280;5143;42.584;23.164;2023-08-20T12:47:32;92813.22;;;30.34;38.23
10202;BME280;5143;42.584;23.164;2023-08-20T12:50:00;92801.63;;;30.39;39.37
10202;BME280;5143;42.584;23.164;2023-08-20T12:52:29;92797.06;;;30.34;37.97
10202;BME280;5143;42.584;23.164;2023-08-20T12:54:57;92808.63;;;30.17;38.27
10202;BME280;5143;42.584;23.164;2023-08-20T12:57:24;92804.81;;;30.13;38.61
10202;BME280;5143;42.584;23.164;2023-08-20T12:59:53;92797.47;;;30.19;39.24
10202;BME280;5143;42.584;23.164;2023-08-20T13:02:20;92790.38;;;30.18;39.32